sensor_id;sensor_type;location;lat;lon;timestamp;P1;durP1;ratioP1;P2;durP2;ratioP2
3677;SDS011;1855;50.934;6.958;2023-05-07T00:02:03;5.15;;;4.50;;
3677;SDS011;1855;50.934;6.958;2023-05-07T00:04:30;4.90;;;4.50;;
3677;SDS011;1855;50.934;6.958;2023-05-07T00:07:01;5.00;;;4.20;;
3677;SDS011;1855;50.934;6.958;2023-05-07T00:09:28;4.90;;;4.40;;
3677;SDS011;1855;50.934;6.958;2023-05-07T00:11:55;4.40;;;4.10;;
3677;SDS011;1855;50.934;6.958;2023-05-07T00:14:23;4.10;;;3.80;;
3677;SDS011;1855;50.934;6.958;2023-05-07T00:16:50;4.70;;;4.20;;
3677;SDS011;1855;50.934;6.958;2023-05-07T00:19:16;4.30;;;4.00;;
3677;SDS011;1855;50.934;6.958;2023-05-07T00:21:43;5.03;;;4.63;;
3677;SDS011;1855;50.934;6.958;2023-05-07T00:24:10;4.82;;;4.43;;
3677;SDS011;1855;50.934;6.958;2023-05-07T00:26:36;5.07;;;4.67;;
3677;SDS011;1855;50.934;6.958;2023-05-07T00:29:03;4.70;;;4.30;;
3677;SDS011;1855;50.934;6.958;2023-05-07T00:31:31;5.15;;;4.75;;
3677;SDS011;1855;50.934;6.958;2023-05-07T00:33:58;5.50;;;5.00;;
3677;SDS011;1855;50.934;6.958;2023-05-07T00:36:25;5.50;;;5.00;;
3677;SDS011;1855;50.934;6.958;2023-05-07T00:38:53;4.63;;;4.22;;
3677;SDS011;1855;50.934;6.958;2023-05-07T00:41:20;5.00;;;4.60;;
3677;SDS011;1855;50.934;6.958;2023-05-07T00:43:47;4.50;;;4.20;;
3677;SDS011;1855;50.934;6.958;2023-05-07T00:46:16;4.78;;;4.38;;
3677;SDS011;1855;50.934;6.958;2023-05-07T00:48:45;5.22;;;4.82;;
3677;SDS011;1855;50.934;6.958;2023-05-07T00:51:11;5.15;;;4.75;;
3677;SDS011;1855;50.934;6.958;2023-05-07T00:53:38;4.90;;;4.60;;
3677;SDS011;1855;50.934;6.958;2023-05-07T00:56:06;5.10;;;4.60;;
3677;SDS011;1855;50.934;6.958;2023-05-07T00:58:33;4.80;;;4.40;;
3677;SDS011;1855;50.934;6.958;2023-05-07T01:00:59;5.40;;;4.10;;
3677;SDS011;1855;50.934;6.958;2023-05-07T01:03:26;4.57;;;4.17;;
3677;SDS011;1855;50.934;6.958;2023-05-07T01:05:54;4.10;;;3.70;;
3677;SDS011;1855;50.934;6.958;2023-05-07T01:08:23;4.10;;;3.80;;
3677;SDS011;1855;50.934;6.958;2023-05-07T01:10:53;4.37;;;3.97;;
3677;SDS011;1855;50.934;6.958;2023-05-07T01:13:20;4.43;;;4.00;;
3677;SDS011;1855;50.934;6.958;2023-05-07T01:15:47;4.53;;;4.13;;
3677;SDS011;1855;50.934;6.958;2023-05-07T01:18:14;3.90;;;3.60;;
3677;SDS011;1855;50.934;6.958;2023-05-07T01:20:41;4.00;;;3.70;;
3677;SDS011;1855;50.934;6.958;2023-05-07T01:23:09;3.70;;;3.40;;
3677;SDS011;1855;50.934;6.958;2023-05-07T01:25:37;4.40;;;3.70;;
3677;SDS011;1855;50.934;6.958;2023-05-07T01:28:04;4.20;;;3.90;;
3677;SDS011;1855;50.934;6.958;2023-05-07T01:30:30;3.97;;;3.63;;
3677;SDS011;1855;50.934;6.958;2023-05-07T01:32:59;3.40;;;3.10;;
3677;SDS011;1855;50.934;6.958;2023-05-07T01:35:32;3.90;;;3.60;;
3677;SDS011;1855;50.934;6.958;2023-05-07T01:38:03;3.95;;;3.65;;
3677;SDS011;1855;50.934;6.958;2023-05-07T01:40:32;4.27;;;3.87;;
3677;SDS011;1855;50.934;6.958;2023-05-07T01:43:00;3.83;;;3.53;;
3677;SDS011;1855;50.934;6.958;2023-05-07T01:45:27;3.70;;;3.40;;
3677;SDS011;1855;50.934;6.958;2023-05-07T01:47:54;3.70;;;3.40;;
3677;SDS011;1855;50.934;6.958;2023-05-07T01:50:22;4.20;;;3.80;;
3677;SDS011;1855;50.934;6.958;2023-05-07T01:52:49;3.60;;;3.30;;
3677;SDS011;1855;50.934;6.958;2023-05-07T01:55:16;4.25;;;3.95;;
3677;SDS011;1855;50.934;6.958;2023-05-07T01:57:44;4.00;;;3.70;;
3677;SDS011;1855;50.934;6.958;2023-05-07T02:00:11;3.90;;;3.60;;
3677;SDS011;1855;50.934;6.958;2023-05-07T02:02:38;4.00;;;3.70;;
3677;SDS011;1855;50.934;6.958;2023-05-07T02:05:05;4.20;;;3.80;;
3677;SDS011;1855;50.934;6.958;2023-05-07T02:07:32;3.80;;;3.50;;
3677;SDS011;1855;50.934;6.958;2023-05-07T02:09:59;4.17;;;3.87;;
3677;SDS011;1855;50.934;6.958;2023-05-07T02:12:26;4.20;;;3.88;;
3677;SDS011;1855;50.934;6.958;2023-05-07T02:14:54;4.30;;;3.90;;
3677;SDS011;1855;50.934;6.958;2023-05-07T02:17:21;4.55;;;4.15;;
3677;SDS011;1855;50.934;6.958;2023-05-07T02:19:47;4.50;;;4.10;;
3677;SDS011;1855;50.934;6.958;2023-05-07T02:22:14;4.10;;;3.80;;
3677;SDS011;1855;50.934;6.958;2023-05-07T02:24:41;3.60;;;3.30;;
3677;SDS011;1855;50.934;6.958;2023-05-07T02:27:08;4.63;;;3.83;;
3677;SDS011;1855;50.934;6.958;2023-05-07T02:29:35;4.60;;;4.20;;
3677;SDS011;1855;50.934;6.958;2023-05-07T02:32:03;4.20;;;3.90;;
3677;SDS011;1855;50.934;6.958;2023-05-07T02:34:30;4.50;;;4.20;;
3677;SDS011;1855;50.934;6.958;2023-05-07T02:36:56;4.65;;;4.15;;
3677;SDS011;1855;50.934;6.958;2023-05-07T02:39:23;4.68;;;4.22;;
3677;SDS011;1855;50.934;6.958;2023-05-07T02:41:50;4.70;;;4.30;;
3677;SDS011;1855;50.934;6.958;2023-05-07T02:44:16;4.28;;;3.97;;
3677;SDS011;1855;50.934;6.958;2023-05-07T02:46:43;5.00;;;3.67;;
3677;SDS011;1855;50.934;6.958;2023-05-07T02:49:11;4.75;;;4.30;;
3677;SDS011;1855;50.934;6.958;2023-05-07T02:51:38;4.40;;;4.00;;
3677;SDS011;1855;50.934;6.958;2023-05-07T02:54:04;5.03;;;4.50;;
3677;SDS011;1855;50.934;6.958;2023-05-07T02:56:31;4.63;;;4.22;;
3677;SDS011;1855;50.934;6.958;2023-05-07T02:58:58;4.65;;;4.25;;
3677;SDS011;1855;50.934;6.958;2023-05-07T03:01:25;4.32;;;3.92;;
3677;SDS011;1855;50.934;6.958;2023-05-07T03:03:52;4.60;;;4.30;;
3677;SDS011;1855;50.934;6.958;2023-05-07T03:06:20;4.65;;;4.20;;
3677;SDS011;1855;50.934;6.958;2023-05-07T03:08:46;4.55;;;4.15;;
3677;SDS011;1855;50.934;6.958;2023-05-07T03:11:13;4.82;;;4.43;;
3677;SDS011;1855;50.934;6.958;2023-05-07T03:13:40;5.13;;;4.63;;
3677;SDS011;1855;50.934;6.958;2023-05-07T03:16:06;4.65;;;4.00;;
3677;SDS011;1855;50.934;6.958;2023-05-07T03:18:33;4.30;;;4.00;;
3677;SDS011;1855;50.934;6.958;2023-05-07T03:21:00;4.53;;;4.13;;
3677;SDS011;1855;50.934;6.958;2023-05-07T03:23:28;4.68;;;4.10;;
3677;SDS011;1855;50.934;6.958;2023-05-07T03:25:55;4.50;;;4.20;;
3677;SDS011;1855;50.934;6.958;2023-05-07T03:28:21;4.18;;;3.78;;
3677;SDS011;1855;50.934;6.958;2023-05-07T03:30:48;4.60;;;4.30;;
3677;SDS011;1855;50.934;6.958;2023-05-07T03:33:15;4.60;;;4.20;;
3677;SDS011;1855;50.934;6.958;2023-05-07T03:35:42;4.90;;;4.50;;
3677;SDS011;1855;50.934;6.958;2023-05-07T03:38:09;4.35;;;4.05;;
3677;SDS011;1855;50.934;6.958;2023-05-07T03:40:37;4.60;;;4.30;;
3677;SDS011;1855;50.934;6.958;2023-05-07T03:43:03;4.70;;;4.30;;
3677;SDS011;1855;50.934;6.958;2023-05-07T03:45:30;4.30;;;4.00;;
3677;SDS011;1855;50.934;6.958;2023-05-07T03:47:57;4.47;;;4.18;;
3677;SDS011;1855;50.934;6.958;2023-05-07T03:50:23;4.63;;;4.22;;
3677;SDS011;1855;50.934;6.958;2023-05-07T03:52:50;4.60;;;4.20;;
3677;SDS011;1855;50.934;6.958;2023-05-07T03:55:17;4.40;;;4.00;;
3677;SDS011;1855;50.934;6.958;2023-05-07T03:57:45;4.97;;;4.47;;
3677;SDS011;1855;50.934;6.958;2023-05-07T04:00:12;4.30;;;4.00;;
3677;SDS011;1855;50.934;6.958;2023-05-07T04:02:39;4.25;;;3.85;;
3677;SDS011;1855;50.934;6.958;2023-05-07T04:05:06;4.45;;;4.05;;
3677;SDS011;1855;50.934;6.958;2023-05-07T04:07:33;4.60;;;4.00;;
3677;SDS011;1855;50.934;6.958;2023-05-07T04:10:00;4.40;;;4.00;;
3677;SDS011;1855;50.934;6.958;2023-05-07T04:12:27;3.97;;;3.67;;
3677;SDS011;1855;50.934;6.958;2023-05-07T04:14:55;4.70;;;4.30;;
3677;SDS011;1855;50.934;6.958;2023-05-07T04:17:22;3.83;;;3.53;;
3677;SDS011;1855;50.934;6.958;2023-05-07T04:19:48;4.47;;;3.95;;
3677;SDS011;1855;50.934;6.958;2023-05-07T04:22:15;3.85;;;3.55;;
3677;SDS011;1855;50.934;6.958;2023-05-07T04:24:42;4.20;;;3.80;;
3677;SDS011;1855;50.934;6.958;2023-05-07T04:27:08;5.00;;;3.63;;
3677;SDS011;1855;50.934;6.958;2023-05-07T04:29:35;4.00;;;3.70;;
3677;SDS011;1855;50.934;6.958;2023-05-07T04:32:05;3.90;;;3.60;;
3677;SDS011;1855;50.934;6.958;2023-05-07T04:34:31;3.90;;;3.50;;
3677;SDS011;1855;50.934;6.958;2023-05-07T04:36:58;3.92;;;3.63;;
3677;SDS011;1855;50.934;6.958;2023-05-07T04:39:25;3.95;;;3.60;;
3677;SDS011;1855;50.934;6.958;2023-05-07T04:41:52;4.37;;;4.07;;
3677;SDS011;1855;50.934;6.958;2023-05-07T04:44:19;4.20;;;3.40;;
3677;SDS011;1855;50.934;6.958;2023-05-07T04:46:45;3.33;;;3.13;;
3677;SDS011;1855;50.934;6.958;2023-05-07T04:49:13;4.15;;;3.30;;
3677;SDS011;1855;50.934;6.958;2023-05-07T04:51:40;3.85;;;3.33;;
3677;SDS011;1855;50.934;6.958;2023-05-07T04:54:08;4.38;;;3.00;;
3677;SDS011;1855;50.934;6.958;2023-05-07T04:56:35;4.00;;;3.42;;
3677;SDS011;1855;50.934;6.958;2023-05-07T04:59:01;3.10;;;2.80;;
3677;SDS011;1855;50.934;6.958;2023-05-07T05:01:28;3.40;;;3.10;;
3677;SDS011;1855;50.934;6.958;2023-05-07T05:03:55;3.10;;;2.80;;
3677;SDS011;1855;50.934;6.958;2023-05-07T05:06:23;3.60;;;3.30;;
3677;SDS011;1855;50.934;6.958;2023-05-07T05:08:49;3.70;;;3.40;;
3677;SDS011;1855;50.934;6.958;2023-05-07T05:11:16;3.28;;;2.90;;
3677;SDS011;1855;50.934;6.958;2023-05-07T05:13:43;3.15;;;2.80;;
3677;SDS011;1855;50.934;6.958;2023-05-07T05:16:10;2.80;;;2.40;;
3677;SDS011;1855;50.934;6.958;2023-05-07T05:18:36;2.90;;;2.30;;
3677;SDS011;1855;50.934;6.958;2023-05-07T05:21:03;3.80;;;2.97;;
3677;SDS011;1855;50.934;6.958;2023-05-07T05:23:31;4.93;;;2.58;;
3677;SDS011;1855;50.934;6.958;2023-05-07T05:25:58;2.90;;;2.70;;
3677;SDS011;1855;50.934;6.958;2023-05-07T05:28:25;3.55;;;2.55;;
3677;SDS011;1855;50.934;6.958;2023-05-07T05:30:52;2.80;;;2.50;;
3677;SDS011;1855;50.934;6.958;2023-05-07T05:33:19;3.45;;;2.90;;
3677;SDS011;1855;50.934;6.958;2023-05-07T05:35:46;2.80;;;2.60;;
3677;SDS011;1855;50.934;6.958;2023-05-07T05:38:12;2.20;;;2.05;;
3677;SDS011;1855;50.934;6.958;2023-05-07T05:40:41;3.00;;;2.80;;
3677;SDS011;1855;50.934;6.958;2023-05-07T05:43:07;2.47;;;2.28;;
3677;SDS011;1855;50.934;6.958;2023-05-07T05:45:34;3.73;;;2.60;;
3677;SDS011;1855;50.934;6.958;2023-05-07T05:48:01;2.60;;;2.40;;
3677;SDS011;1855;50.934;6.958;2023-05-07T05:50:27;2.85;;;2.65;;
3677;SDS011;1855;50.934;6.958;2023-05-07T05:52:54;3.00;;;2.50;;
3677;SDS011;1855;50.934;6.958;2023-05-07T05:55:22;3.43;;;2.70;;
3677;SDS011;1855;50.934;6.958;2023-05-07T05:57:51;2.60;;;2.40;;
3677;SDS011;1855;50.934;6.958;2023-05-07T06:00:17;2.70;;;2.00;;
3677;SDS011;1855;50.934;6.958;2023-05-07T06:02:47;2.42;;;2.20;;
3677;SDS011;1855;50.934;6.958;2023-05-07T06:05:14;2.35;;;2.15;;
3677;SDS011;1855;50.934;6.958;2023-05-07T06:07:42;3.00;;;2.00;;
3677;SDS011;1855;50.934;6.958;2023-05-07T06:10:09;2.25;;;2.05;;
3677;SDS011;1855;50.934;6.958;2023-05-07T06:12:36;4.40;;;2.30;;
3677;SDS011;1855;50.934;6.958;2023-05-07T06:15:05;2.70;;;2.05;;
3677;SDS011;1855;50.934;6.958;2023-05-07T06:17:32;5.05;;;3.85;;
3677;SDS011;1855;50.934;6.958;2023-05-07T06:19:59;3.40;;;2.60;;
3677;SDS011;1855;50.934;6.958;2023-05-07T06:22:26;4.97;;;3.17;;
3677;SDS011;1855;50.934;6.958;2023-05-07T06:24:53;2.90;;;2.38;;
3677;SDS011;1855;50.934;6.958;2023-05-07T06:27:20;2.40;;;2.03;;
3677;SDS011;1855;50.934;6.958;2023-05-07T06:29:47;2.20;;;2.00;;
3677;SDS011;1855;50.934;6.958;2023-05-07T06:32:15;2.30;;;2.10;;
3677;SDS011;1855;50.934;6.958;2023-05-07T06:34:42;2.33;;;2.13;;
3677;SDS011;1855;50.934;6.958;2023-05-07T06:37:09;2.50;;;2.00;;
3677;SDS011;1855;50.934;6.958;2023-05-07T06:39:36;2.20;;;2.00;;
3677;SDS011;1855;50.934;6.958;2023-05-07T06:42:03;2.65;;;2.00;;
3677;SDS011;1855;50.934;6.958;2023-05-07T06:44:30;2.20;;;1.97;;
3677;SDS011;1855;50.934;6.958;2023-05-07T06:46:56;3.22;;;2.10;;
3677;SDS011;1855;50.934;6.958;2023-05-07T06:49:24;3.30;;;2.00;;
3677;SDS011;1855;50.934;6.958;2023-05-07T06:51:51;2.67;;;2.45;;
3677;SDS011;1855;50.934;6.958;2023-05-07T06:54:18;2.83;;;2.30;;
3677;SDS011;1855;50.934;6.958;2023-05-07T06:56:45;2.43;;;2.23;;
3677;SDS011;1855;50.934;6.958;2023-05-07T06:59:12;2.70;;;2.50;;
3677;SDS011;1855;50.934;6.958;2023-05-07T07:01:38;2.72;;;2.53;;
3677;SDS011;1855;50.934;6.958;2023-05-07T07:04:05;2.60;;;2.38;;
3677;SDS011;1855;50.934;6.958;2023-05-07T07:06:33;4.38;;;2.40;;
3677;SDS011;1855;50.934;6.958;2023-05-07T07:09:00;3.50;;;2.15;;
3677;SDS011;1855;50.934;6.958;2023-05-07T07:11:27;2.05;;;1.83;;
3677;SDS011;1855;50.934;6.958;2023-05-07T07:13:53;3.70;;;1.88;;
3677;SDS011;1855;50.934;6.958;2023-05-07T07:16:20;1.98;;;1.88;;
3677;SDS011;1855;50.934;6.958;2023-05-07T07:18:47;2.20;;;2.00;;
3677;SDS011;1855;50.934;6.958;2023-05-07T07:21:14;2.10;;;1.90;;
3677;SDS011;1855;50.934;6.958;2023-05-07T07:23:42;2.25;;;2.05;;
3677;SDS011;1855;50.934;6.958;2023-05-07T07:26:09;2.60;;;2.10;;
3677;SDS011;1855;50.934;6.958;2023-05-07T07:28:41;2.42;;;1.90;;
3677;SDS011;1855;50.934;6.958;2023-05-07T07:31:08;1.95;;;1.85;;
3677;SDS011;1855;50.934;6.958;2023-05-07T07:33:35;2.85;;;2.00;;
3677;SDS011;1855;50.934;6.958;2023-05-07T07:36:02;2.47;;;2.13;;
3677;SDS011;1855;50.934;6.958;2023-05-07T07:38:29;2.20;;;2.00;;
3677;SDS011;1855;50.934;6.958;2023-05-07T07:40:57;2.38;;;2.00;;
3677;SDS011;1855;50.934;6.958;2023-05-07T07:43:23;2.40;;;1.73;;
3677;SDS011;1855;50.934;6.958;2023-05-07T07:45:50;1.98;;;1.65;;
3677;SDS011;1855;50.934;6.958;2023-05-07T07:48:17;5.10;;;2.30;;
3677;SDS011;1855;50.934;6.958;2023-05-07T07:50:44;2.20;;;1.98;;
3677;SDS011;1855;50.934;6.958;2023-05-07T07:53:10;3.07;;;1.87;;
3677;SDS011;1855;50.934;6.958;2023-05-07T07:55:38;2.40;;;2.10;;
3677;SDS011;1855;50.934;6.958;2023-05-07T07:58:06;2.10;;;1.70;;
3677;SDS011;1855;50.934;6.958;2023-05-07T08:00:33;3.20;;;2.30;;
3677;SDS011;1855;50.934;6.958;2023-05-07T08:03:00;2.25;;;1.90;;
3677;SDS011;1855;50.934;6.958;2023-05-07T08:05:28;2.47;;;2.00;;
3677;SDS011;1855;50.934;6.958;2023-05-07T08:07:55;2.38;;;2.00;;
3677;SDS011;1855;50.934;6.958;2023-05-07T08:10:22;1.90;;;1.70;;
3677;SDS011;1855;50.934;6.958;2023-05-07T08:12:49;2.13;;;1.70;;
3677;SDS011;1855;50.934;6.958;2023-05-07T08:15:17;3.30;;;1.70;;
3677;SDS011;1855;50.934;6.958;2023-05-07T08:17:44;2.42;;;2.00;;
3677;SDS011;1855;50.934;6.958;2023-05-07T08:20:11;2.75;;;1.73;;
3677;SDS011;1855;50.934;6.958;2023-05-07T08:22:38;2.28;;;2.08;;
3677;SDS011;1855;50.934;6.958;2023-05-07T08:25:05;2.00;;;1.73;;
3677;SDS011;1855;50.934;6.958;2023-05-07T08:27:32;2.90;;;1.90;;
3677;SDS011;1855;50.934;6.958;2023-05-07T08:29:59;2.17;;;1.80;;
3677;SDS011;1855;50.934;6.958;2023-05-07T08:32:27;2.47;;;2.05;;
3677;SDS011;1855;50.934;6.958;2023-05-07T08:34:54;2.55;;;1.80;;
3677;SDS011;1855;50.934;6.958;2023-05-07T08:37:20;2.20;;;1.60;;
3677;SDS011;1855;50.934;6.958;2023-05-07T08:39:47;2.70;;;1.60;;
3677;SDS011;1855;50.934;6.958;2023-05-07T08:42:14;2.00;;;1.40;;
3677;SDS011;1855;50.934;6.958;2023-05-07T08:44:42;2.20;;;1.70;;
3677;SDS011;1855;50.934;6.958;2023-05-07T08:47:11;2.75;;;2.03;;
3677;SDS011;1855;50.934;6.958;2023-05-07T08:49:40;1.92;;;1.40;;
3677;SDS011;1855;50.934;6.958;2023-05-07T08:52:06;2.40;;;1.85;;
3677;SDS011;1855;50.934;6.958;2023-05-07T08:54:33;1.90;;;1.70;;
3677;SDS011;1855;50.934;6.958;2023-05-07T08:57:02;1.95;;;1.70;;
3677;SDS011;1855;50.934;6.958;2023-05-07T08:59:29;1.90;;;1.48;;
3677;SDS011;1855;50.934;6.958;2023-05-07T09:01:56;1.77;;;1.50;;
3677;SDS011;1855;50.934;6.958;2023-05-07T09:04:23;1.63;;;1.50;;
3677;SDS011;1855;50.934;6.958;2023-05-07T09:06:51;2.40;;;1.50;;
3677;SDS011;1855;50.934;6.958;2023-05-07T09:09:18;2.20;;;1.88;;
3677;SDS011;1855;50.934;6.958;2023-05-07T09:11:45;1.63;;;1.53;;
3677;SDS011;1855;50.934;6.958;2023-05-07T09:14:11;1.80;;;1.70;;
3677;SDS011;1855;50.934;6.958;2023-05-07T09:16:38;1.60;;;1.40;;
3677;SDS011;1855;50.934;6.958;2023-05-07T09:19:05;1.70;;;1.60;;
3677;SDS011;1855;50.934;6.958;2023-05-07T09:21:32;2.00;;;1.70;;
3677;SDS011;1855;50.934;6.958;2023-05-07T09:24:00;2.08;;;1.55;;
3677;SDS011;1855;50.934;6.958;2023-05-07T09:26:26;1.63;;;1.40;;
3677;SDS011;1855;50.934;6.958;2023-05-07T09:28:53;2.30;;;1.60;;
3677;SDS011;1855;50.934;6.958;2023-05-07T09:31:20;1.98;;;1.60;;
3677;SDS011;1855;50.934;6.958;2023-05-07T09:33:48;1.90;;;1.40;;
3677;SDS011;1855;50.934;6.958;2023-05-07T09:36:15;2.50;;;1.50;;
3677;SDS011;1855;50.934;6.958;2023-05-07T09:38:42;2.40;;;1.65;;
3677;SDS011;1855;50.934;6.958;2023-05-07T09:41:10;2.23;;;1.47;;
3677;SDS011;1855;50.934;6.958;2023-05-07T09:43:38;2.67;;;1.90;;
3677;SDS011;1855;50.934;6.958;2023-05-07T09:46:06;2.60;;;1.45;;
3677;SDS011;1855;50.934;6.958;2023-05-07T09:48:37;2.15;;;1.60;;
3677;SDS011;1855;50.934;6.958;2023-05-07T09:51:08;1.60;;;1.40;;
3677;SDS011;1855;50.934;6.958;2023-05-07T09:53:39;2.10;;;1.40;;
3677;SDS011;1855;50.934;6.958;2023-05-07T09:56:07;1.50;;;1.40;;
3677;SDS011;1855;50.934;6.958;2023-05-07T09:58:35;1.80;;;1.60;;
3677;SDS011;1855;50.934;6.958;2023-05-07T10:01:04;2.90;;;1.65;;
3677;SDS011;1855;50.934;6.958;2023-05-07T10:03:32;2.25;;;1.50;;
3677;SDS011;1855;50.934;6.958;2023-05-07T10:06:01;2.10;;;1.30;;
3677;SDS011;1855;50.934;6.958;2023-05-07T10:08:29;2.20;;;1.30;;
3677;SDS011;1855;50.934;6.958;2023-05-07T10:10:57;2.10;;;1.58;;
3677;SDS011;1855;50.934;6.958;2023-05-07T10:13:24;1.50;;;1.10;;
3677;SDS011;1855;50.934;6.958;2023-05-07T10:15:52;1.63;;;1.37;;
3677;SDS011;1855;50.934;6.958;2023-05-07T10:18:19;1.50;;;1.30;;
3677;SDS011;1855;50.934;6.958;2023-05-07T10:20:48;1.40;;;1.30;;
3677;SDS011;1855;50.934;6.958;2023-05-07T10:23:19;1.90;;;1.50;;
3677;SDS011;1855;50.934;6.958;2023-05-07T10:25:49;1.60;;;1.20;;
3677;SDS011;1855;50.934;6.958;2023-05-07T10:28:16;1.90;;;1.27;;
3677;SDS011;1855;50.934;6.958;2023-05-07T10:30:48;1.70;;;1.45;;
3677;SDS011;1855;50.934;6.958;2023-05-07T10:33:26;2.03;;;1.40;;
3677;SDS011;1855;50.934;6.958;2023-05-07T10:35:55;1.90;;;1.40;;
3677;SDS011;1855;50.934;6.958;2023-05-07T10:38:25;1.70;;;1.20;;
3677;SDS011;1855;50.934;6.958;2023-05-07T10:40:52;1.60;;;1.20;;
3677;SDS011;1855;50.934;6.958;2023-05-07T10:43:19;1.98;;;1.27;;
3677;SDS011;1855;50.934;6.958;2023-05-07T10:51:37;1.60;;;1.48;;
3677;SDS011;1855;50.934;6.958;2023-05-07T10:54:23;1.90;;;1.20;;
3677;SDS011;1855;50.934;6.958;2023-05-07T10:56:50;1.55;;;1.25;;
3677;SDS011;1855;50.934;6.958;2023-05-07T10:59:36;1.40;;;1.30;;
3677;SDS011;1855;50.934;6.958;2023-05-07T11:02:10;1.58;;;1.40;;
3677;SDS011;1855;50.934;6.958;2023-05-07T11:04:39;1.65;;;1.30;;
3677;SDS011;1855;50.934;6.958;2023-05-07T11:09:55;1.38;;;1.10;;
3677;SDS011;1855;50.934;6.958;2023-05-07T11:12:46;2.20;;;1.00;;
3677;SDS011;1855;50.934;6.958;2023-05-07T11:18:08;2.25;;;1.10;;
3677;SDS011;1855;50.934;6.958;2023-05-07T11:20:44;1.50;;;1.10;;
3677;SDS011;1855;50.934;6.958;2023-05-07T11:26:17;1.23;;;0.90;;
3677;SDS011;1855;50.934;6.958;2023-05-07T11:28:44;1.00;;;0.90;;
3677;SDS011;1855;50.934;6.958;2023-05-07T11:31:10;1.48;;;0.90;;
3677;SDS011;1855;50.934;6.958;2023-05-07T11:33:38;1.63;;;0.93;;
3677;SDS011;1855;50.934;6.958;2023-05-07T11:36:07;1.80;;;1.00;;
3677;SDS011;1855;50.934;6.958;2023-05-07T11:38:34;1.02;;;0.90;;
3677;SDS011;1855;50.934;6.958;2023-05-07T11:41:02;2.60;;;1.10;;
3677;SDS011;1855;50.934;6.958;2023-05-07T11:43:30;1.00;;;0.90;;
3677;SDS011;1855;50.934;6.958;2023-05-07T11:46:04;1.30;;;1.00;;
3677;SDS011;1855;50.934;6.958;2023-05-07T11:48:32;1.50;;;1.10;;
3677;SDS011;1855;50.934;6.958;2023-05-07T11:51:01;1.20;;;1.00;;
3677;SDS011;1855;50.934;6.958;2023-05-07T11:53:35;1.30;;;1.00;;
3677;SDS011;1855;50.934;6.958;2023-05-07T11:56:05;1.50;;;1.20;;
3677;SDS011;1855;50.934;6.958;2023-05-07T11:58:33;1.30;;;1.00;;
3677;SDS011;1855;50.934;6.958;2023-05-07T12:00:59;1.80;;;1.20;;
3677;SDS011;1855;50.934;6.958;2023-05-07T12:03:26;1.58;;;1.20;;
3677;SDS011;1855;50.934;6.958;2023-05-07T12:05:53;1.73;;;1.57;;
3677;SDS011;1855;50.934;6.958;2023-05-07T12:08:21;1.50;;;1.17;;
3677;SDS011;1855;50.934;6.958;2023-05-07T12:10:49;1.45;;;1.23;;
3677;SDS011;1855;50.934;6.958;2023-05-07T12:13:16;2.30;;;1.80;;
3677;SDS011;1855;50.934;6.958;2023-05-07T12:15:43;2.00;;;1.50;;
3677;SDS011;1855;50.934;6.958;2023-05-07T12:18:10;1.60;;;1.30;;
3677;SDS011;1855;50.934;6.958;2023-05-07T12:20:38;2.53;;;1.40;;
3677;SDS011;1855;50.934;6.958;2023-05-07T12:23:05;2.72;;;1.17;;
3677;SDS011;1855;50.934;6.958;2023-05-07T12:25:35;2.10;;;1.30;;
3677;SDS011;1855;50.934;6.958;2023-05-07T12:28:02;3.15;;;1.60;;
3677;SDS011;1855;50.934;6.958;2023-05-07T12:30:30;1.90;;;1.27;;
3677;SDS011;1855;50.934;6.958;2023-05-07T12:32:57;2.30;;;1.40;;
3677;SDS011;1855;50.934;6.958;2023-05-07T12:35:27;1.70;;;1.40;;
3677;SDS011;1855;50.934;6.958;2023-05-07T12:37:54;2.30;;;1.40;;
3677;SDS011;1855;50.934;6.958;2023-05-07T12:40:21;1.30;;;1.20;;
3677;SDS011;1855;50.934;6.958;2023-05-07T12:42:52;1.50;;;1.40;;
3677;SDS011;1855;50.934;6.958;2023-05-07T12:45:20;1.52;;;1.42;;
3677;SDS011;1855;50.934;6.958;2023-05-07T12:47:47;1.50;;;1.40;;
3677;SDS011;1855;50.934;6.958;2023-05-07T12:50:14;2.80;;;1.40;;
3677;SDS011;1855;50.934;6.958;2023-05-07T12:52:42;2.67;;;1.40;;
3677;SDS011;1855;50.934;6.958;2023-05-07T12:55:12;2.10;;;1.60;;
3677;SDS011;1855;50.934;6.958;2023-05-07T12:57:41;2.55;;;1.60;;
3677;SDS011;1855;50.934;6.958;2023-05-07T13:00:10;1.80;;;1.40;;
3677;SDS011;1855;50.934;6.958;2023-05-07T13:02:38;2.10;;;1.90;;
3677;SDS011;1855;50.934;6.958;2023-05-07T13:05:05;2.30;;;1.60;;
3677;SDS011;1855;50.934;6.958;2023-05-07T13:07:33;2.08;;;1.58;;
3677;SDS011;1855;50.934;6.958;2023-05-07T13:09:59;2.20;;;2.00;;
3677;SDS011;1855;50.934;6.958;2023-05-07T13:12:27;1.90;;;1.63;;
3677;SDS011;1855;50.934;6.958;2023-05-07T13:14:54;1.70;;;1.60;;
3677;SDS011;1855;50.934;6.958;2023-05-07T13:17:22;1.83;;;1.70;;
3677;SDS011;1855;50.934;6.958;2023-05-07T13:19:49;2.30;;;2.10;;
3677;SDS011;1855;50.934;6.958;2023-05-07T13:22:16;2.20;;;2.00;;
3677;SDS011;1855;50.934;6.958;2023-05-07T13:24:42;3.47;;;1.80;;
3677;SDS011;1855;50.934;6.958;2023-05-07T13:27:09;2.17;;;1.85;;
3677;SDS011;1855;50.934;6.958;2023-05-07T13:29:36;1.90;;;1.67;;
3677;SDS011;1855;50.934;6.958;2023-05-07T13:32:03;2.28;;;1.80;;
3677;SDS011;1855;50.934;6.958;2023-05-07T13:34:31;2.70;;;2.50;;
3677;SDS011;1855;50.934;6.958;2023-05-07T13:36:58;2.83;;;1.55;;
3677;SDS011;1855;50.934;6.958;2023-05-07T13:39:25;2.20;;;1.90;;
3677;SDS011;1855;50.934;6.958;2023-05-07T13:41:51;3.70;;;1.80;;
3677;SDS011;1855;50.934;6.958;2023-05-07T13:44:18;2.10;;;1.90;;
3677;SDS011;1855;50.934;6.958;2023-05-07T13:46:45;2.10;;;1.90;;
3677;SDS011;1855;50.934;6.958;2023-05-07T13:49:12;2.40;;;1.70;;
3677;SDS011;1855;50.934;6.958;2023-05-07T13:51:40;1.75;;;1.65;;
3677;SDS011;1855;50.934;6.958;2023-05-07T13:54:07;2.00;;;1.80;;
3677;SDS011;1855;50.934;6.958;2023-05-07T13:56:33;1.75;;;1.50;;
3677;SDS011;1855;50.934;6.958;2023-05-07T13:59:00;1.90;;;1.70;;
3677;SDS011;1855;50.934;6.958;2023-05-07T14:01:27;2.10;;;1.50;;
3677;SDS011;1855;50.934;6.958;2023-05-07T14:03:54;2.38;;;1.80;;
3677;SDS011;1855;50.934;6.958;2023-05-07T14:06:21;2.47;;;1.70;;
3677;SDS011;1855;50.934;6.958;2023-05-07T14:08:49;2.13;;;1.80;;
3677;SDS011;1855;50.934;6.958;2023-05-07T14:11:16;3.20;;;1.90;;
3677;SDS011;1855;50.934;6.958;2023-05-07T14:13:43;2.00;;;1.80;;
3677;SDS011;1855;50.934;6.958;2023-05-07T14:16:10;1.52;;;1.42;;
3677;SDS011;1855;50.934;6.958;2023-05-07T14:18:36;2.20;;;1.60;;
3677;SDS011;1855;50.934;6.958;2023-05-07T14:21:04;2.10;;;1.80;;
3677;SDS011;1855;50.934;6.958;2023-05-07T14:23:31;1.70;;;1.60;;
3677;SDS011;1855;50.934;6.958;2023-05-07T14:25:59;1.73;;;1.63;;
3677;SDS011;1855;50.934;6.958;2023-05-07T14:28:26;2.40;;;2.20;;
3677;SDS011;1855;50.934;6.958;2023-05-07T14:30:52;2.38;;;2.00;;
3677;SDS011;1855;50.934;6.958;2023-05-07T14:33:19;2.20;;;2.00;;
3677;SDS011;1855;50.934;6.958;2023-05-07T14:35:46;2.20;;;1.70;;
3677;SDS011;1855;50.934;6.958;2023-05-07T14:38:14;2.57;;;1.80;;
3677;SDS011;1855;50.934;6.958;2023-05-07T14:40:41;2.20;;;1.90;;
3677;SDS011;1855;50.934;6.958;2023-05-07T14:43:09;2.97;;;2.00;;
3677;SDS011;1855;50.934;6.958;2023-05-07T14:45:36;2.50;;;2.30;;
3677;SDS011;1855;50.934;6.958;2023-05-07T14:48:03;2.07;;;1.87;;
3677;SDS011;1855;50.934;6.958;2023-05-07T14:50:30;2.88;;;2.20;;
3677;SDS011;1855;50.934;6.958;2023-05-07T14:52:57;2.80;;;2.20;;
3677;SDS011;1855;50.934;6.958;2023-05-07T14:55:24;2.30;;;1.80;;
3677;SDS011;1855;50.934;6.958;2023-05-07T14:57:51;2.50;;;2.15;;
3677;SDS011;1855;50.934;6.958;2023-05-07T15:00:20;3.00;;;2.38;;
3677;SDS011;1855;50.934;6.958;2023-05-07T15:02:47;2.80;;;2.40;;
3677;SDS011;1855;50.934;6.958;2023-05-07T15:05:13;2.75;;;2.55;;
3677;SDS011;1855;50.934;6.958;2023-05-07T15:07:40;2.90;;;2.60;;
3677;SDS011;1855;50.934;6.958;2023-05-07T15:10:08;3.20;;;2.90;;
3677;SDS011;1855;50.934;6.958;2023-05-07T15:12:35;3.20;;;2.90;;
3677;SDS011;1855;50.934;6.958;2023-05-07T15:15:02;3.30;;;3.00;;
3677;SDS011;1855;50.934;6.958;2023-05-07T15:17:30;3.40;;;3.10;;
3677;SDS011;1855;50.934;6.958;2023-05-07T15:19:57;3.40;;;3.00;;
3677;SDS011;1855;50.934;6.958;2023-05-07T15:22:25;3.20;;;2.90;;
3677;SDS011;1855;50.934;6.958;2023-05-07T15:24:52;2.65;;;2.45;;
3677;SDS011;1855;50.934;6.958;2023-05-07T15:27:21;2.97;;;2.78;;
3677;SDS011;1855;50.934;6.958;2023-05-07T15:29:48;3.20;;;2.58;;
3677;SDS011;1855;50.934;6.958;2023-05-07T15:32:15;2.78;;;2.50;;